sensor_id;sensor_type;location;lat;lon;timestamp;P1;durP1;ratioP1;P2;durP2;ratioP2
18505;SDS011;9382;53.242;10.438;2023-04-24T00:00:57;5.27;;;4.27;;
18505;SDS011;9382;53.242;10.438;2023-04-24T00:03:26;4.90;;;4.40;;
18505;SDS011;9382;53.242;10.438;2023-04-24T00:05:55;6.07;;;4.50;;
18505;SDS011;9382;53.242;10.438;2023-04-24T00:08:23;5.50;;;4.67;;
18505;SDS011;9382;53.242;10.438;2023-04-24T00:10:50;5.30;;;4.80;;
18505;SDS011;9382;53.242;10.438;2023-04-24T00:13:18;6.47;;;4.43;;
18505;SDS011;9382;53.242;10.438;2023-04-24T00:15:44;4.73;;;4.23;;
18505;SDS011;9382;53.242;10.438;2023-04-24T00:18:11;6.10;;;4.77;;
18505;SDS011;9382;53.242;10.438;2023-04-24T00:20:38;5.43;;;4.73;;
18505;SDS011;9382;53.242;10.438;2023-04-24T00:23:07;5.23;;;4.67;;
18505;SDS011;9382;53.242;10.438;2023-04-24T00:25:34;5.10;;;4.50;;
18505;SDS011;9382;53.242;10.438;2023-04-24T00:28:00;5.17;;;4.67;;
18505;SDS011;9382;53.242;10.438;2023-04-24T00:30:27;11.33;;;5.20;;
18505;SDS011;9382;53.242;10.438;2023-04-24T00:32:54;5.20;;;4.70;;
18505;SDS011;9382;53.242;10.438;2023-04-24T00:35:21;5.67;;;4.83;;
18505;SDS011;9382;53.242;10.438;2023-04-24T00:37:48;5.03;;;4.53;;
18505;SDS011;9382;53.242;10.438;2023-04-24T00:40:16;5.00;;;4.47;;
18505;SDS011;9382;53.242;10.438;2023-04-24T00:42:43;5.10;;;4.70;;
18505;SDS011;9382;53.242;10.438;2023-04-24T00:45:10;6.20;;;4.57;;
18505;SDS011;9382;53.242;10.438;2023-04-24T00:47:37;7.13;;;4.63;;
18505;SDS011;9382;53.242;10.438;2023-04-24T00:50:05;5.10;;;4.40;;
18505;SDS011;9382;53.242;10.438;2023-04-24T00:52:33;4.93;;;4.40;;
18505;SDS011;9382;53.242;10.438;2023-04-24T00:55:00;5.07;;;4.40;;
18505;SDS011;9382;53.242;10.438;2023-04-24T00:57:28;5.37;;;4.50;;
18505;SDS011;9382;53.242;10.438;2023-04-24T00:59:55;5.17;;;4.60;;
18505;SDS011;9382;53.242;10.438;2023-04-24T01:02:22;4.57;;;4.17;;
18505;SDS011;9382;53.242;10.438;2023-04-24T01:04:49;4.97;;;4.23;;
18505;SDS011;9382;53.242;10.438;2023-04-24T01:07:17;4.30;;;3.90;;
18505;SDS011;9382;53.242;10.438;2023-04-24T01:09:45;4.20;;;3.80;;
18505;SDS011;9382;53.242;10.438;2023-04-24T01:12:17;4.33;;;3.93;;
18505;SDS011;9382;53.242;10.438;2023-04-24T01:14:45;4.60;;;3.90;;
18505;SDS011;9382;53.242;10.438;2023-04-24T01:17:12;4.87;;;4.23;;
18505;SDS011;9382;53.242;10.438;2023-04-24T01:19:38;4.27;;;3.87;;
18505;SDS011;9382;53.242;10.438;2023-04-24T01:22:11;4.53;;;4.10;;
18505;SDS011;9382;53.242;10.438;2023-04-24T01:24:38;4.30;;;3.83;;
18505;SDS011;9382;53.242;10.438;2023-04-24T01:27:05;4.90;;;4.00;;
18505;SDS011;9382;53.242;10.438;2023-04-24T01:29:33;5.57;;;3.93;;
18505;SDS011;9382;53.242;10.438;2023-04-24T01:32:00;5.97;;;3.80;;
18505;SDS011;9382;53.242;10.438;2023-04-24T01:34:27;4.50;;;3.73;;
18505;SDS011;9382;53.242;10.438;2023-04-24T01:36:54;4.03;;;3.63;;
18505;SDS011;9382;53.242;10.438;2023-04-24T01:39:22;4.23;;;3.67;;
18505;SDS011;9382;53.242;10.438;2023-04-24T01:41:50;6.10;;;3.73;;
18505;SDS011;9382;53.242;10.438;2023-04-24T01:44:17;3.60;;;3.30;;
18505;SDS011;9382;53.242;10.438;2023-04-24T01:46:44;3.30;;;3.00;;
18505;SDS011;9382;53.242;10.438;2023-04-24T01:49:11;3.43;;;3.13;;
18505;SDS011;9382;53.242;10.438;2023-04-24T01:51:38;3.90;;;3.30;;
18505;SDS011;9382;53.242;10.438;2023-04-24T01:54:04;3.73;;;2.73;;
18505;SDS011;9382;53.242;10.438;2023-04-24T01:56:33;3.27;;;2.97;;
18505;SDS011;9382;53.242;10.438;2023-04-24T01:59:00;3.57;;;2.90;;
18505;SDS011;9382;53.242;10.438;2023-04-24T02:01:32;2.60;;;2.40;;
18505;SDS011;9382;53.242;10.438;2023-04-24T02:04:02;2.87;;;2.63;;
18505;SDS011;9382;53.242;10.438;2023-04-24T02:06:28;2.77;;;2.57;;
18505;SDS011;9382;53.242;10.438;2023-04-24T02:08:56;2.63;;;2.43;;
18505;SDS011;9382;53.242;10.438;2023-04-24T02:11:23;3.57;;;2.40;;
18505;SDS011;9382;53.242;10.438;2023-04-24T02:13:51;2.73;;;2.53;;
18505;SDS011;9382;53.242;10.438;2023-04-24T02:16:18;3.10;;;2.37;;
18505;SDS011;9382;53.242;10.438;2023-04-24T02:18:45;2.70;;;2.40;;
18505;SDS011;9382;53.242;10.438;2023-04-24T02:21:12;2.30;;;2.20;;
18505;SDS011;9382;53.242;10.438;2023-04-24T02:23:38;2.17;;;2.07;;
18505;SDS011;9382;53.242;10.438;2023-04-24T02:26:05;2.37;;;2.20;;
18505;SDS011;9382;53.242;10.438;2023-04-24T02:28:32;2.70;;;2.50;;
18505;SDS011;9382;53.242;10.438;2023-04-24T02:31:00;3.13;;;2.70;;
18505;SDS011;9382;53.242;10.438;2023-04-24T02:33:27;4.17;;;2.60;;
18505;SDS011;9382;53.242;10.438;2023-04-24T02:35:54;2.50;;;2.33;;
18505;SDS011;9382;53.242;10.438;2023-04-24T02:38:20;3.97;;;2.40;;
18505;SDS011;9382;53.242;10.438;2023-04-24T02:40:47;2.50;;;2.30;;
18505;SDS011;9382;53.242;10.438;2023-04-24T02:43:14;2.93;;;2.63;;
18505;SDS011;9382;53.242;10.438;2023-04-24T02:45:40;2.40;;;2.20;;
18505;SDS011;9382;53.242;10.438;2023-04-24T02:48:08;2.60;;;2.40;;
18505;SDS011;9382;53.242;10.438;2023-04-24T02:50:35;2.13;;;2.03;;
18505;SDS011;9382;53.242;10.438;2023-04-24T02:53:02;3.67;;;2.20;;
18505;SDS011;9382;53.242;10.438;2023-04-24T02:55:29;2.30;;;2.10;;
18505;SDS011;9382;53.242;10.438;2023-04-24T02:57:55;2.40;;;2.17;;
18505;SDS011;9382;53.242;10.438;2023-04-24T03:00:22;2.23;;;2.10;;
18505;SDS011;9382;53.242;10.438;2023-04-24T03:02:49;2.07;;;1.97;;
18505;SDS011;9382;53.242;10.438;2023-04-24T03:05:17;2.40;;;2.00;;
18505;SDS011;9382;53.242;10.438;2023-04-24T03:07:45;2.10;;;2.00;;
18505;SDS011;9382;53.242;10.438;2023-04-24T03:10:12;2.20;;;2.00;;
18505;SDS011;9382;53.242;10.438;2023-04-24T03:12:38;2.37;;;1.97;;
18505;SDS011;9382;53.242;10.438;2023-04-24T03:15:06;2.87;;;2.00;;
18505;SDS011;9382;53.242;10.438;2023-04-24T03:17:33;2.13;;;1.97;;
18505;SDS011;9382;53.242;10.438;2023-04-24T03:20:00;1.90;;;1.80;;
18505;SDS011;9382;53.242;10.438;2023-04-24T03:22:28;2.10;;;1.80;;
18505;SDS011;9382;53.242;10.438;2023-04-24T03:24:57;2.40;;;1.80;;
18505;SDS011;9382;53.242;10.438;2023-04-24T03:27:24;2.30;;;2.10;;
18505;SDS011;9382;53.242;10.438;2023-04-24T03:29:51;2.10;;;1.90;;
18505;SDS011;9382;53.242;10.438;2023-04-24T03:32:20;1.83;;;1.73;;
18505;SDS011;9382;53.242;10.438;2023-04-24T03:34:47;1.77;;;1.67;;
18505;SDS011;9382;53.242;10.438;2023-04-24T03:37:14;2.00;;;1.83;;
18505;SDS011;9382;53.242;10.438;2023-04-24T03:39:42;1.57;;;1.47;;
18505;SDS011;9382;53.242;10.438;2023-04-24T03:42:09;1.73;;;1.63;;
18505;SDS011;9382;53.242;10.438;2023-04-24T03:44:35;1.70;;;1.60;;
18505;SDS011;9382;53.242;10.438;2023-04-24T03:47:03;1.80;;;1.70;;
18505;SDS011;9382;53.242;10.438;2023-04-24T03:49:30;1.53;;;1.53;;
18505;SDS011;9382;53.242;10.438;2023-04-24T03:51:56;2.30;;;1.53;;
18505;SDS011;9382;53.242;10.438;2023-04-24T03:54:23;1.80;;;1.70;;
18505;SDS011;9382;53.242;10.438;2023-04-24T03:56:51;1.70;;;1.60;;
18505;SDS011;9382;53.242;10.438;2023-04-24T03:59:18;1.80;;;1.70;;
18505;SDS011;9382;53.242;10.438;2023-04-24T04:01:45;2.80;;;1.50;;
18505;SDS011;9382;53.242;10.438;2023-04-24T04:04:12;1.60;;;1.50;;
18505;SDS011;9382;53.242;10.438;2023-04-24T04:06:38;1.57;;;1.50;;
18505;SDS011;9382;53.242;10.438;2023-04-24T04:09:05;1.50;;;1.50;;
18505;SDS011;9382;53.242;10.438;2023-04-24T04:11:33;1.63;;;1.57;;
18505;SDS011;9382;53.242;10.438;2023-04-24T04:14:01;1.50;;;1.40;;
18505;SDS011;9382;53.242;10.438;2023-04-24T04:16:28;2.17;;;1.47;;
18505;SDS011;9382;53.242;10.438;2023-04-24T04:18:55;1.70;;;1.53;;
18505;SDS011;9382;53.242;10.438;2023-04-24T04:21:22;1.77;;;1.67;;
18505;SDS011;9382;53.242;10.438;2023-04-24T04:23:49;1.40;;;1.40;;
18505;SDS011;9382;53.242;10.438;2023-04-24T04:26:16;1.47;;;1.37;;
18505;SDS011;9382;53.242;10.438;2023-04-24T04:28:44;2.13;;;1.70;;
18505;SDS011;9382;53.242;10.438;2023-04-24T04:31:14;1.90;;;1.47;;
18505;SDS011;9382;53.242;10.438;2023-04-24T04:33:40;2.33;;;1.83;;
18505;SDS011;9382;53.242;10.438;2023-04-24T04:36:07;1.60;;;1.50;;
18505;SDS011;9382;53.242;10.438;2023-04-24T04:38:34;1.60;;;1.57;;
18505;SDS011;9382;53.242;10.438;2023-04-24T04:41:02;1.60;;;1.60;;
18505;SDS011;9382;53.242;10.438;2023-04-24T04:43:29;1.53;;;1.43;;
18505;SDS011;9382;53.242;10.438;2023-04-24T04:45:57;2.33;;;1.50;;
18505;SDS011;9382;53.242;10.438;2023-04-24T04:48:27;1.70;;;1.50;;
18505;SDS011;9382;53.242;10.438;2023-04-24T04:50:53;1.87;;;1.43;;
18505;SDS011;9382;53.242;10.438;2023-04-24T04:53:20;2.50;;;1.50;;
18505;SDS011;9382;53.242;10.438;2023-04-24T04:55:47;1.77;;;1.67;;
18505;SDS011;9382;53.242;10.438;2023-04-24T04:58:13;1.50;;;1.40;;
18505;SDS011;9382;53.242;10.438;2023-04-24T05:00:40;2.40;;;1.50;;
18505;SDS011;9382;53.242;10.438;2023-04-24T05:03:07;1.77;;;1.50;;
18505;SDS011;9382;53.242;10.438;2023-04-24T05:05:35;1.60;;;1.50;;
18505;SDS011;9382;53.242;10.438;2023-04-24T05:08:05;1.40;;;1.40;;
18505;SDS011;9382;53.242;10.438;2023-04-24T05:10:32;1.60;;;1.50;;
18505;SDS011;9382;53.242;10.438;2023-04-24T05:12:59;1.80;;;1.70;;
18505;SDS011;9382;53.242;10.438;2023-04-24T05:15:25;1.50;;;1.40;;
18505;SDS011;9382;53.242;10.438;2023-04-24T05:17:52;1.60;;;1.50;;
18505;SDS011;9382;53.242;10.438;2023-04-24T05:20:19;1.90;;;1.80;;
18505;SDS011;9382;53.242;10.438;2023-04-24T05:22:47;1.70;;;1.60;;
18505;SDS011;9382;53.242;10.438;2023-04-24T05:25:14;1.50;;;1.50;;
18505;SDS011;9382;53.242;10.438;2023-04-24T05:27:40;1.50;;;1.50;;
18505;SDS011;9382;53.242;10.438;2023-04-24T05:30:08;1.80;;;1.70;;
18505;SDS011;9382;53.242;10.438;2023-04-24T05:32:35;1.70;;;1.63;;
18505;SDS011;9382;53.242;10.438;2023-04-24T05:35:02;1.90;;;1.80;;
18505;SDS011;9382;53.242;10.438;2023-04-24T05:37:29;1.70;;;1.60;;
18505;SDS011;9382;53.242;10.438;2023-04-24T05:39:57;1.80;;;1.70;;
18505;SDS011;9382;53.242;10.438;2023-04-24T05:42:24;2.60;;;1.90;;
18505;SDS011;9382;53.242;10.438;2023-04-24T05:44:50;1.70;;;1.60;;
18505;SDS011;9382;53.242;10.438;2023-04-24T05:47:19;2.30;;;1.67;;
18505;SDS011;9382;53.242;10.438;2023-04-24T05:49:46;1.90;;;1.80;;
18505;SDS011;9382;53.242;10.438;2023-04-24T05:52:13;2.27;;;1.90;;
18505;SDS011;9382;53.242;10.438;2023-04-24T05:54:40;2.53;;;1.70;;
18505;SDS011;9382;53.242;10.438;2023-04-24T05:57:08;1.90;;;1.80;;
18505;SDS011;9382;53.242;10.438;2023-04-24T05:59:36;2.30;;;1.80;;
18505;SDS011;9382;53.242;10.438;2023-04-24T06:02:03;2.23;;;1.60;;
18505;SDS011;9382;53.242;10.438;2023-04-24T06:04:30;2.23;;;1.67;;
18505;SDS011;9382;53.242;10.438;2023-04-24T06:06:57;1.97;;;1.80;;
18505;SDS011;9382;53.242;10.438;2023-04-24T06:09:24;5.30;;;1.70;;
18505;SDS011;9382;53.242;10.438;2023-04-24T06:11:51;1.70;;;1.60;;
18505;SDS011;9382;53.242;10.438;2023-04-24T06:14:20;1.60;;;1.50;;
18505;SDS011;9382;53.242;10.438;2023-04-24T06:16:46;1.57;;;1.47;;
18505;SDS011;9382;53.242;10.438;2023-04-24T06:19:13;1.67;;;1.60;;
18505;SDS011;9382;53.242;10.438;2023-04-24T06:21:40;1.63;;;1.50;;
18505;SDS011;9382;53.242;10.438;2023-04-24T06:24:07;1.80;;;1.70;;
18505;SDS011;9382;53.242;10.438;2023-04-24T06:26:33;1.70;;;1.60;;
18505;SDS011;9382;53.242;10.438;2023-04-24T06:29:00;1.67;;;1.57;;
18505;SDS011;9382;53.242;10.438;2023-04-24T06:31:28;1.60;;;1.50;;
18505;SDS011;9382;53.242;10.438;2023-04-24T06:33:55;2.07;;;1.67;;
18505;SDS011;9382;53.242;10.438;2023-04-24T06:36:22;1.60;;;1.50;;
18505;SDS011;9382;53.242;10.438;2023-04-24T06:38:49;1.40;;;1.30;;
18505;SDS011;9382;53.242;10.438;2023-04-24T06:41:15;1.33;;;1.30;;
18505;SDS011;9382;53.242;10.438;2023-04-24T06:43:42;1.77;;;1.60;;
18505;SDS011;9382;53.242;10.438;2023-04-24T06:46:09;1.53;;;1.43;;
18505;SDS011;9382;53.242;10.438;2023-04-24T06:48:38;1.63;;;1.53;;
18505;SDS011;9382;53.242;10.438;2023-04-24T06:51:05;1.47;;;1.30;;
18505;SDS011;9382;53.242;10.438;2023-04-24T06:53:32;1.40;;;1.40;;
18505;SDS011;9382;53.242;10.438;2023-04-24T06:55:58;1.40;;;1.40;;
18505;SDS011;9382;53.242;10.438;2023-04-24T06:58:25;1.57;;;1.47;;
18505;SDS011;9382;53.242;10.438;2023-04-24T07:00:52;1.93;;;1.40;;
18505;SDS011;9382;53.242;10.438;2023-04-24T07:03:19;1.63;;;1.40;;
18505;SDS011;9382;53.242;10.438;2023-04-24T07:05:47;1.47;;;1.47;;
18505;SDS011;9382;53.242;10.438;2023-04-24T07:08:14;1.80;;;1.60;;
18505;SDS011;9382;53.242;10.438;2023-04-24T07:10:42;1.70;;;1.30;;
18505;SDS011;9382;53.242;10.438;2023-04-24T07:13:09;2.27;;;1.47;;
18505;SDS011;9382;53.242;10.438;2023-04-24T07:15:36;2.20;;;1.47;;
18505;SDS011;9382;53.242;10.438;2023-04-24T07:18:03;1.97;;;1.50;;
18505;SDS011;9382;53.242;10.438;2023-04-24T07:20:30;1.43;;;1.33;;
18505;SDS011;9382;53.242;10.438;2023-04-24T07:22:59;1.40;;;1.30;;
18505;SDS011;9382;53.242;10.438;2023-04-24T07:25:26;3.70;;;1.47;;
18505;SDS011;9382;53.242;10.438;2023-04-24T07:27:53;1.20;;;1.20;;
18505;SDS011;9382;53.242;10.438;2023-04-24T07:30:19;2.17;;;1.40;;
18505;SDS011;9382;53.242;10.438;2023-04-24T07:32:46;1.57;;;1.30;;
18505;SDS011;9382;53.242;10.438;2023-04-24T07:35:13;1.20;;;1.10;;
18505;SDS011;9382;53.242;10.438;2023-04-24T07:37:40;1.20;;;1.20;;
18505;SDS011;9382;53.242;10.438;2023-04-24T07:40:12;1.27;;;1.07;;
18505;SDS011;9382;53.242;10.438;2023-04-24T07:42:39;2.33;;;1.50;;
18505;SDS011;9382;53.242;10.438;2023-04-24T07:45:06;1.60;;;1.43;;
18505;SDS011;9382;53.242;10.438;2023-04-24T07:47:33;1.40;;;1.40;;
18505;SDS011;9382;53.242;10.438;2023-04-24T07:50:01;2.50;;;1.70;;
18505;SDS011;9382;53.242;10.438;2023-04-24T07:52:28;1.50;;;1.50;;
18505;SDS011;9382;53.242;10.438;2023-04-24T07:54:55;2.70;;;1.40;;
18505;SDS011;9382;53.242;10.438;2023-04-24T07:57:25;1.73;;;1.50;;
18505;SDS011;9382;53.242;10.438;2023-04-24T07:59:51;1.40;;;1.40;;
18505;SDS011;9382;53.242;10.438;2023-04-24T08:02:18;1.53;;;1.43;;
18505;SDS011;9382;53.242;10.438;2023-04-24T08:04:46;1.57;;;1.30;;
18505;SDS011;9382;53.242;10.438;2023-04-24T08:07:13;1.30;;;1.30;;
18505;SDS011;9382;53.242;10.438;2023-04-24T08:09:40;1.57;;;1.47;;
18505;SDS011;9382;53.242;10.438;2023-04-24T08:12:07;2.27;;;1.73;;
18505;SDS011;9382;53.242;10.438;2023-04-24T08:14:35;2.97;;;1.50;;
18505;SDS011;9382;53.242;10.438;2023-04-24T08:17:02;1.40;;;1.30;;
18505;SDS011;9382;53.242;10.438;2023-04-24T08:19:29;1.60;;;1.50;;
18505;SDS011;9382;53.242;10.438;2023-04-24T08:21:56;2.57;;;1.37;;
18505;SDS011;9382;53.242;10.438;2023-04-24T08:24:22;1.57;;;1.50;;
18505;SDS011;9382;53.242;10.438;2023-04-24T08:26:49;2.47;;;1.30;;
18505;SDS011;9382;53.242;10.438;2023-04-24T08:29:17;1.50;;;1.40;;
18505;SDS011;9382;53.242;10.438;2023-04-24T08:31:45;2.67;;;1.57;;
18505;SDS011;9382;53.242;10.438;2023-04-24T08:34:12;1.70;;;1.60;;
18505;SDS011;9382;53.242;10.438;2023-04-24T08:36:39;1.87;;;1.77;;
18505;SDS011;9382;53.242;10.438;2023-04-24T08:39:06;2.23;;;1.90;;
18505;SDS011;9382;53.242;10.438;2023-04-24T08:41:33;1.70;;;1.60;;
18505;SDS011;9382;53.242;10.438;2023-04-24T08:44:01;2.60;;;2.03;;
18505;SDS011;9382;53.242;10.438;2023-04-24T08:46:28;2.00;;;1.90;;
18505;SDS011;9382;53.242;10.438;2023-04-24T08:48:57;1.80;;;1.70;;
18505;SDS011;9382;53.242;10.438;2023-04-24T08:51:25;2.77;;;2.00;;
18505;SDS011;9382;53.242;10.438;2023-04-24T08:53:54;2.00;;;1.90;;
18505;SDS011;9382;53.242;10.438;2023-04-24T08:56:21;2.27;;;2.13;;
18505;SDS011;9382;53.242;10.438;2023-04-24T08:58:49;2.10;;;2.00;;
18505;SDS011;9382;53.242;10.438;2023-04-24T09:01:17;2.83;;;2.50;;
18505;SDS011;9382;53.242;10.438;2023-04-24T09:03:45;2.60;;;2.40;;
18505;SDS011;9382;53.242;10.438;2023-04-24T09:06:16;3.00;;;2.77;;
18505;SDS011;9382;53.242;10.438;2023-04-24T09:08:45;3.70;;;2.83;;
18505;SDS011;9382;53.242;10.438;2023-04-24T09:11:13;3.73;;;3.40;;
18505;SDS011;9382;53.242;10.438;2023-04-24T09:13:40;3.70;;;3.40;;
18505;SDS011;9382;53.242;10.438;2023-04-24T09:16:07;3.70;;;3.40;;
18505;SDS011;9382;53.242;10.438;2023-04-24T09:18:34;4.73;;;4.20;;
18505;SDS011;9382;53.242;10.438;2023-04-24T09:21:01;4.30;;;3.90;;
18505;SDS011;9382;53.242;10.438;2023-04-24T09:23:32;5.70;;;3.83;;
18505;SDS011;9382;53.242;10.438;2023-04-24T09:25:59;5.83;;;4.47;;
18505;SDS011;9382;53.242;10.438;2023-04-24T09:28:29;5.80;;;4.73;;
18505;SDS011;9382;53.242;10.438;2023-04-24T09:31:06;6.97;;;4.63;;
18505;SDS011;9382;53.242;10.438;2023-04-24T09:33:35;5.30;;;4.80;;
18505;SDS011;9382;53.242;10.438;2023-04-24T09:36:02;5.33;;;4.70;;
18505;SDS011;9382;53.242;10.438;2023-04-24T09:38:32;6.30;;;5.03;;
18505;SDS011;9382;53.242;10.438;2023-04-24T09:41:00;5.83;;;4.80;;
18505;SDS011;9382;53.242;10.438;2023-04-24T09:43:28;4.60;;;4.13;;
18505;SDS011;9382;53.242;10.438;2023-04-24T09:45:56;5.30;;;4.80;;
18505;SDS011;9382;53.242;10.438;2023-04-24T09:48:30;6.27;;;4.67;;
18505;SDS011;9382;53.242;10.438;2023-04-24T09:50:57;5.17;;;4.50;;
18505;SDS011;9382;53.242;10.438;2023-04-24T09:53:25;5.83;;;4.53;;
18505;SDS011;9382;53.242;10.438;2023-04-24T09:55:54;8.53;;;5.03;;
18505;SDS011;9382;53.242;10.438;2023-04-24T09:58:24;4.87;;;4.40;;
18505;SDS011;9382;53.242;10.438;2023-04-24T10:00:55;6.97;;;5.03;;
18505;SDS011;9382;53.242;10.438;2023-04-24T10:03:23;6.43;;;5.00;;
18505;SDS011;9382;53.242;10.438;2023-04-24T10:05:51;5.47;;;4.30;;
18505;SDS011;9382;53.242;10.438;2023-04-24T10:08:18;5.03;;;4.33;;
18505;SDS011;9382;53.242;10.438;2023-04-24T10:10:46;5.87;;;5.20;;
18505;SDS011;9382;53.242;10.438;2023-04-24T10:13:14;6.80;;;4.60;;
18505;SDS011;9382;53.242;10.438;2023-04-24T10:15:41;6.00;;;4.93;;
18505;SDS011;9382;53.242;10.438;2023-04-24T10:18:09;8.03;;;5.33;;
18505;SDS011;9382;53.242;10.438;2023-04-24T10:20:37;8.00;;;5.03;;
18505;SDS011;9382;53.242;10.438;2023-04-24T10:23:05;7.07;;;4.87;;
18505;SDS011;9382;53.242;10.438;2023-04-24T10:25:33;5.97;;;5.40;;
18505;SDS011;9382;53.242;10.438;2023-04-24T10:28:02;6.70;;;5.00;;
18505;SDS011;9382;53.242;10.438;2023-04-24T10:30:31;7.50;;;5.33;;
18505;SDS011;9382;53.242;10.438;2023-04-24T10:33:00;6.43;;;5.00;;
18505;SDS011;9382;53.242;10.438;2023-04-24T10:35:29;5.90;;;5.30;;
18505;SDS011;9382;53.242;10.438;2023-04-24T10:37:58;6.63;;;5.20;;
18505;SDS011;9382;53.242;10.438;2023-04-24T10:40:30;5.33;;;4.67;;
18505;SDS011;9382;53.242;10.438;2023-04-24T10:42:58;6.40;;;4.87;;
18505;SDS011;9382;53.242;10.438;2023-04-24T10:45:25;5.23;;;4.30;;
18505;SDS011;9382;53.242;10.438;2023-04-24T10:48:03;5.50;;;4.70;;
18505;SDS011;9382;53.242;10.438;2023-04-24T10:50:42;6.10;;;5.20;;
18505;SDS011;9382;53.242;10.438;2023-04-24T10:53:12;6.37;;;4.77;;
18505;SDS011;9382;53.242;10.438;2023-04-24T10:55:41;7.93;;;5.37;;
18505;SDS011;9382;53.242;10.438;2023-04-24T10:58:10;9.20;;;5.57;;
18505;SDS011;9382;53.242;10.438;2023-04-24T11:00:38;7.40;;;5.43;;
18505;SDS011;9382;53.242;10.438;2023-04-24T11:03:12;7.70;;;5.10;;
18505;SDS011;9382;53.242;10.438;2023-04-24T11:05:51;6.77;;;5.20;;
18505;SDS011;9382;53.242;10.438;2023-04-24T11:08:21;8.27;;;4.93;;
18505;SDS011;9382;53.242;10.438;2023-04-24T11:10:59;6.03;;;5.03;;
18505;SDS011;9382;53.242;10.438;2023-04-24T11:16:29;5.73;;;4.67;;
18505;SDS011;9382;53.242;10.438;2023-04-24T11:19:03;6.37;;;4.33;;
18505;SDS011;9382;53.242;10.438;2023-04-24T11:21:31;4.67;;;4.23;;
18505;SDS011;9382;53.242;10.438;2023-04-24T11:26:51;8.20;;;3.70;;
18505;SDS011;9382;53.242;10.438;2023-04-24T11:29:19;5.90;;;3.73;;
18505;SDS011;9382;53.242;10.438;2023-04-24T11:31:47;4.13;;;3.30;;
18505;SDS011;9382;53.242;10.438;2023-04-24T11:34:17;3.33;;;2.97;;
18505;SDS011;9382;53.242;10.438;2023-04-24T11:36:44;3.90;;;3.30;;
18505;SDS011;9382;53.242;10.438;2023-04-24T11:39:12;3.90;;;2.97;;
18505;SDS011;9382;53.242;10.438;2023-04-24T11:41:39;3.10;;;2.80;;
18505;SDS011;9382;53.242;10.438;2023-04-24T11:44:07;6.57;;;3.10;;
18505;SDS011;9382;53.242;10.438;2023-04-24T11:46:36;2.73;;;2.53;;
18505;SDS011;9382;53.242;10.438;2023-04-24T11:49:04;5.93;;;3.10;;
18505;SDS011;9382;53.242;10.438;2023-04-24T11:51:33;3.23;;;2.90;;
18505;SDS011;9382;53.242;10.438;2023-04-24T11:54:00;3.53;;;3.27;;
18505;SDS011;9382;53.242;10.438;2023-04-24T11:56:28;3.43;;;3.13;;
18505;SDS011;9382;53.242;10.438;2023-04-24T11:58:54;5.00;;;3.60;;
18505;SDS011;9382;53.242;10.438;2023-04-24T12:01:21;4.00;;;3.60;;
18505;SDS011;9382;53.242;10.438;2023-04-24T12:03:48;4.03;;;3.63;;
18505;SDS011;9382;53.242;10.438;2023-04-24T12:06:16;6.67;;;3.70;;
18505;SDS011;9382;53.242;10.438;2023-04-24T12:08:47;4.47;;;3.67;;
18505;SDS011;9382;53.242;10.438;2023-04-24T12:11:15;4.77;;;3.80;;
18505;SDS011;9382;53.242;10.438;2023-04-24T12:13:43;3.77;;;3.43;;
18505;SDS011;9382;53.242;10.438;2023-04-24T12:16:11;4.10;;;3.40;;
18505;SDS011;9382;53.242;10.438;2023-04-24T12:18:41;4.13;;;3.43;;
18505;SDS011;9382;53.242;10.438;2023-04-24T12:21:15;4.20;;;3.77;;
18505;SDS011;9382;53.242;10.438;2023-04-24T12:23:43;3.70;;;3.40;;
18505;SDS011;9382;53.242;10.438;2023-04-24T12:26:12;4.27;;;3.43;;
18505;SDS011;9382;53.242;10.438;2023-04-24T12:28:42;7.67;;;3.97;;
18505;SDS011;9382;53.242;10.438;2023-04-24T12:31:09;5.23;;;3.93;;
18505;SDS011;9382;53.242;10.438;2023-04-24T12:33:35;4.17;;;3.77;;
18505;SDS011;9382;53.242;10.438;2023-04-24T12:36:03;4.60;;;3.80;;
18505;SDS011;9382;53.242;10.438;2023-04-24T12:38:31;3.47;;;3.27;;
18505;SDS011;9382;53.242;10.438;2023-04-24T12:41:05;4.13;;;3.40;;
18505;SDS011;9382;53.242;10.438;2023-04-24T12:43:34;4.33;;;3.50;;
18505;SDS011;9382;53.242;10.438;2023-04-24T12:46:02;3.60;;;3.30;;
18505;SDS011;9382;53.242;10.438;2023-04-24T12:48:29;3.63;;;3.30;;
18505;SDS011;9382;53.242;10.438;2023-04-24T12:50:57;4.20;;;3.53;;
18505;SDS011;9382;53.242;10.438;2023-04-24T12:53:26;3.40;;;3.00;;
18505;SDS011;9382;53.242;10.438;2023-04-24T12:55:54;3.30;;;3.00;;
18505;SDS011;9382;53.242;10.438;2023-04-24T12:58:21;3.30;;;3.00;;
18505;SDS011;9382;53.242;10.438;2023-04-24T13:00:49;3.30;;;3.10;;
18505;SDS011;9382;53.242;10.438;2023-04-24T13:03:16;3.50;;;3.30;;
18505;SDS011;9382;53.242;10.438;2023-04-24T13:05:44;3.20;;;2.90;;
18505;SDS011;9382;53.242;10.438;2023-04-24T13:08:10;4.40;;;3.10;;
18505;SDS011;9382;53.242;10.438;2023-04-24T13:10:38;2.87;;;2.67;;
18505;SDS011;9382;53.242;10.438;2023-04-24T13:13:06;2.67;;;2.47;;
18505;SDS011;9382;53.242;10.438;2023-04-24T13:15:33;2.67;;;2.47;;
18505;SDS011;9382;53.242;10.438;2023-04-24T13:18:01;2.40;;;2.20;;
18505;SDS011;9382;53.242;10.438;2023-04-24T13:20:28;2.67;;;2.40;;
18505;SDS011;9382;53.242;10.438;2023-04-24T13:22:55;2.60;;;2.40;;
18505;SDS011;9382;53.242;10.438;2023-04-24T13:25:22;2.67;;;2.47;;
18505;SDS011;9382;53.242;10.438;2023-04-24T13:27:49;2.90;;;2.70;;
18505;SDS011;9382;53.242;10.438;2023-04-24T13:30:16;2.53;;;2.33;;
18505;SDS011;9382;53.242;10.438;2023-04-24T13:32:43;5.67;;;2.73;;
18505;SDS011;9382;53.242;10.438;2023-04-24T13:35:11;2.40;;;2.30;;
18505;SDS011;9382;53.242;10.438;2023-04-24T13:37:38;2.60;;;2.40;;
18505;SDS011;9382;53.242;10.438;2023-04-24T13:40:05;2.17;;;2.03;;
18505;SDS011;9382;53.242;10.438;2023-04-24T13:42:33;2.60;;;2.40;;
18505;SDS011;9382;53.242;10.438;2023-04-24T13:45:00;2.50;;;2.40;;
18505;SDS011;9382;53.242;10.438;2023-04-24T13:47:26;2.10;;;2.00;;
18505;SDS011;9382;53.242;10.438;2023-04-24T13:49:53;2.50;;;2.40;;
18505;SDS011;9382;53.242;10.438;2023-04-24T13:52:21;4.13;;;2.20;;
18505;SDS011;9382;53.242;10.438;2023-04-24T13:54:48;2.40;;;2.20;;
18505;SDS011;9382;53.242;10.438;2023-04-24T13:57:18;2.30;;;2.10;;
18505;SDS011;9382;53.242;10.438;2023-04-24T13:59:46;2.40;;;2.27;;
18505;SDS011;9382;53.242;10.438;2023-04-24T14:02:12;2.43;;;2.23;;
18505;SDS011;9382;53.242;10.438;2023-04-24T14:04:39;2.23;;;2.13;;
18505;SDS011;9382;53.242;10.438;2023-04-24T14:07:06;2.67;;;2.20;;
18505;SDS011;9382;53.242;10.438;2023-04-24T14:09:35;2.20;;;2.10;;
18505;SDS011;9382;53.242;10.438;2023-04-24T14:12:02;2.20;;;2.10;;
18505;SDS011;9382;53.242;10.438;2023-04-24T14:14:29;2.57;;;2.37;;
18505;SDS011;9382;53.242;10.438;2023-04-24T14:16:56;2.60;;;2.23;;
18505;SDS011;9382;53.242;10.438;2023-04-24T14:19:23;2.20;;;2.10;;
18505;SDS011;9382;53.242;10.438;2023-04-24T14:21:50;2.43;;;2.33;;
18505;SDS011;9382;53.242;10.438;2023-04-24T14:24:17;2.60;;;2.50;;
18505;SDS011;9382;53.242;10.438;2023-04-24T14:26:46;3.63;;;2.30;;
18505;SDS011;9382;53.242;10.438;2023-04-24T14:29:12;2.20;;;2.10;;
18505;SDS011;9382;53.242;10.438;2023-04-24T14:31:40;2.17;;;2.03;;
18505;SDS011;9382;53.242;10.438;2023-04-24T14:34:07;2.57;;;2.20;;
18505;SDS011;9382;53.242;10.438;2023-04-24T14:36:34;2.40;;;2.30;;
18505;SDS011;9382;53.242;10.438;2023-04-24T14:39:01;2.70;;;2.50;;
18505;SDS011;9382;53.242;10.438;2023-04-24T14:41:31;2.70;;;2.50;;
18505;SDS011;9382;53.242;10.438;2023-04-24T14:44:01;2.80;;;2.60;;
18505;SDS011;9382;53.242;10.438;2023-04-24T14:46:28;2.60;;;2.50;;
18505;SDS011;9382;53.242;10.438;2023-04-24T14:48:56;2.30;;;2.20;;
18505;SDS011;9382;53.242;10.438;2023-04-24T14:51:22;1.90;;;1.80;;
18505;SDS011;9382;53.242;10.438;2023-04-24T14:53:50;1.50;;;1.50;;
18505;SDS011;9382;53.242;10.438;2023-04-24T14:56:17;1.20;;;1.20;;